Time;durP1;ratioP1;P1;durP2;ratioP2;P2;SDS_P1;SDS_P2;PMS_P1;PMS_P2;Temp;Humidity;BMP_temperature;BMP_pressure;BME280_temperature;BME280_humidity;BME280_pressure;Samples;Min_cycle;Max_cycle;Signal;HPM_P1;HPM_P2
2021/07/24 00:01:11;;;;;;;13.97;12.20;;;17.30;99.90;;;;;;4980526;28;20405;-81
2021/07/24 00:03:40;;;;;;;13.73;12.17;;;17.30;99.90;;;;;;4961831;28;20481;-81
2021/07/24 00:06:08;;;;;;;13.17;11.30;;;17.20;99.90;;;;;;4979022;28;20444;-80
2021/07/24 00:08:37;;;;;;;15.77;12.37;;;17.10;99.90;;;;;;4984589;28;20435;-80
2021/07/24 00:11:05;;;;;;;13.90;11.27;;;17.20;99.90;;;;;;4986355;28;20465;-80
2021/07/24 00:13:35;;;;;;;13.37;10.93;;;17.40;99.90;;;;;;4982244;28;20520;-82
2021/07/24 00:16:04;;;;;;;11.90;10.70;;;17.40;99.90;;;;;;4980127;28;20445;-81
2021/07/24 00:18:34;;;;;;;13.03;11.73;;;17.40;99.90;;;;;;4978973;28;20835;-81
2021/07/24 00:21:02;;;;;;;13.60;12.30;;;17.60;99.90;;;;;;4978949;28;21069;-82
2021/07/24 00:23:30;;;;;;;17.43;14.87;;;17.50;99.90;;;;;;4979548;28;20516;-80
2021/07/24 00:25:58;;;;;;;16.77;13.57;;;17.50;99.90;;;;;;4981132;28;20436;-81
2021/07/24 00:28:26;;;;;;;14.60;10.43;;;17.40;99.90;;;;;;4980399;28;20413;-80
2021/07/24 00:30:54;;;;;;;15.57;13.90;;;17.20;99.90;;;;;;4982334;28;20426;-81
2021/07/24 00:33:29;;;;;;;15.43;13.00;;;17.00;99.90;;;;;;4979254;28;20416;-82
2021/07/24 00:35:59;;;;;;;13.40;11.47;;;16.90;99.90;;;;;;4978336;28;20429;-81
2021/07/24 00:38:27;;;;;;;17.80;13.00;;;16.80;99.90;;;;;;4979567;28;20532;-81
2021/07/24 00:40:59;;;;;;;15.73;13.27;;;16.70;99.90;;;;;;4979004;28;20439;-82
2021/07/24 00:43:30;;;;;;;21.27;13.87;;;16.70;99.90;;;;;;4977383;28;20449;-82
2021/07/24 00:45:59;;;;;;;13.73;12.33;;;16.60;99.90;;;;;;4979962;28;20417;-81
2021/07/24 00:48:30;;;;;;;15.10;13.13;;;16.60;99.90;;;;;;4978772;28;20962;-80
2021/07/24 00:51:12;;;;;;;14.40;12.90;;;16.60;99.90;;;;;;4978314;28;20419;-81
2021/07/24 00:53:40;;;;;;;14.73;13.20;;;16.60;99.90;;;;;;4978958;28;20455;-81
2021/07/24 00:56:08;;;;;;;12.10;10.60;;;16.50;99.90;;;;;;4983841;28;20429;-80
2021/07/24 00:58:36;;;;;;;13.53;11.93;;;16.50;99.90;;;;;;4987914;28;20446;-80
2021/07/24 01:01:06;;;;;;;18.43;12.70;;;16.60;99.90;;;;;;4962096;28;20408;-80
2021/07/24 01:03:36;;;;;;;15.80;13.43;;;16.60;99.90;;;;;;4977288;28;20449;-80
2021/07/24 01:06:04;;;;;;;17.23;12.07;;;16.60;99.90;;;;;;4977589;28;20441;-81
2021/07/24 01:08:37;;;;;;;12.73;11.20;;;16.50;99.90;;;;;;4977750;28;20431;-81
2021/07/24 01:11:07;;;;;;;13.70;11.53;;;16.50;99.90;;;;;;4978252;28;20529;-81
2021/07/24 01:13:35;;;;;;;15.90;12.63;;;16.50;99.90;;;;;;4979787;28;20415;-81
2021/07/24 01:16:05;;;;;;;12.07;10.97;;;16.50;99.90;;;;;;4977634;28;20507;-81
2021/07/24 01:18:35;;;;;;;13.50;12.10;;;16.50;99.90;;;;;;4978721;28;20437;-81
2021/07/24 01:21:07;;;;;;;12.10;10.83;;;16.60;99.90;;;;;;4978936;28;20422;-81
2021/07/24 01:23:41;;;;;;;12.27;10.30;;;16.50;99.90;;;;;;4977956;28;20498;-81
2021/07/24 01:26:10;;;;;;;13.73;10.80;;;16.60;99.90;;;;;;4977572;28;20492;-81
2021/07/24 01:28:39;;;;;;;11.57;10.37;;;16.60;99.90;;;;;;4978798;28;20929;-81
2021/07/24 01:31:08;;;;;;;12.90;10.70;;;16.50;99.90;;;;;;4981044;28;20431;-80
2021/07/24 01:33:41;;;;;;;13.90;10.90;;;16.50;99.90;;;;;;4982514;28;20791;-82
2021/07/24 01:36:11;;;;;;;13.23;11.30;;;16.50;99.90;;;;;;4982456;28;20428;-82
2021/07/24 01:38:41;;;;;;;13.30;11.90;;;16.50;99.90;;;;;;4981257;28;20425;-82
2021/07/24 01:41:14;;;;;;;17.07;13.33;;;16.50;99.90;;;;;;4981080;28;20867;-81
2021/07/24 01:43:44;;;;;;;13.37;12.10;;;16.50;99.90;;;;;;4980704;28;20471;-81
2021/07/24 01:46:14;;;;;;;11.20;10.03;;;16.50;99.90;;;;;;4964116;28;20470;-82
2021/07/24 01:49:11;;;;;;;11.97;9.17;;;16.50;99.90;;;;;;4981368;28;20538;-81
2021/07/24 01:54:40;;;;;;;11.50;8.90;;;16.60;99.90;;;;;;4982382;28;20446;-80
2021/07/24 01:57:10;;;;;;;17.00;9.37;;;16.60;99.90;;;;;;4985702;28;20460;-80
2021/07/24 01:59:48;;;;;;;16.50;10.70;;;16.70;99.90;;;;;;4991316;28;20409;-81
2021/07/24 02:02:17;;;;;;;11.10;9.67;;;16.70;99.90;;;;;;4992919;28;20385;-80
2021/07/24 02:04:50;;;;;;;14.53;10.23;;;16.60;99.90;;;;;;4992591;28;20502;-81
2021/07/24 02:07:24;;;;;;;11.23;10.00;;;16.70;99.90;;;;;;4980638;28;20409;-82
2021/07/24 02:10:00;;;;;;;11.57;9.13;;;16.70;99.90;;;;;;4981493;28;20904;-82
2021/07/24 02:13:00;;;;;;;18.40;10.20;;;16.70;99.90;;;;;;4971113;28;20456;-81
2021/07/24 02:15:30;;;;;;;12.50;9.63;;;16.70;99.90;;;;;;4980874;28;21047;-81
2021/07/24 02:18:01;;;;;;;10.30;9.30;;;16.70;99.90;;;;;;4981270;28;21044;-80
2021/07/24 02:20:30;;;;;;;11.17;10.03;;;16.70;99.90;;;;;;4981016;28;20950;-81
2021/07/24 02:22:59;;;;;;;11.03;9.93;;;16.70;99.90;;;;;;4982025;28;20792;-82
2021/07/24 02:25:30;;;;;;;10.20;8.13;;;16.70;99.90;;;;;;4981203;28;20469;-81
2021/07/24 02:27:58;;;;;;;12.53;9.77;;;16.60;99.90;;;;;;4980050;28;20951;-80
2021/07/24 02:30:26;;;;;;;13.40;10.77;;;16.70;99.90;;;;;;4980487;28;20405;-80
2021/07/24 02:32:54;;;;;;;11.33;9.20;;;16.70;99.90;;;;;;4980193;28;20468;-80
2021/07/24 02:35:23;;;;;;;12.77;11.33;;;16.60;99.90;;;;;;4979751;28;20449;-81
2021/07/24 02:38:14;;;;;;;12.87;9.87;;;16.60;99.90;;;;;;4982667;28;20478;-80
2021/07/24 02:40:47;;;;;;;11.30;8.70;;;16.60;99.90;;;;;;4982161;28;20410;-80
2021/07/24 02:43:16;;;;;;;12.23;10.93;;;16.60;99.90;;;;;;4985328;28;20443;-80
2021/07/24 02:45:45;;;;;;;16.07;11.40;;;16.50;99.90;;;;;;4986776;28;20520;-80
2021/07/24 02:48:13;;;;;;;14.50;13.00;;;16.50;99.90;;;;;;4989042;28;20405;-79
2021/07/24 02:50:51;;;;;;;17.07;15.30;;;16.50;99.90;;;;;;4988068;28;20454;-80
2021/07/24 02:53:20;;;;;;;11.43;10.27;;;16.40;99.90;;;;;;4987248;28;20516;-81
2021/07/24 02:55:50;;;;;;;14.73;10.80;;;16.40;99.90;;;;;;4992375;28;20448;-79
2021/07/24 02:58:18;;;;;;;13.90;10.17;;;16.40;99.90;;;;;;4994335;28;20443;-80
2021/07/24 03:00:47;;;;;;;12.67;11.37;;;16.40;99.90;;;;;;4994012;28;20443;-79
2021/07/24 03:03:15;;;;;;;12.50;11.30;;;16.40;99.90;;;;;;4995630;28;20415;-79
2021/07/24 03:05:44;;;;;;;11.77;10.60;;;16.40;99.90;;;;;;4994243;28;20493;-80
2021/07/24 03:08:14;;;;;;;13.53;12.00;;;16.40;99.90;;;;;;4979231;28;20843;-80
2021/07/24 03:10:42;;;;;;;14.67;12.23;;;16.40;99.90;;;;;;4962674;28;20413;-79
2021/07/24 03:13:11;;;;;;;17.70;13.80;;;16.40;99.90;;;;;;4990372;28;20496;-81
2021/07/24 03:15:39;;;;;;;18.13;12.60;;;16.40;99.90;;;;;;4966687;28;20475;-81
2021/07/24 03:18:07;;;;;;;20.70;12.80;;;16.40;99.90;;;;;;4979206;28;20448;-81
2021/07/24 03:20:35;;;;;;;16.97;13.13;;;16.30;99.90;;;;;;4978607;28;20439;-81
2021/07/24 03:23:03;;;;;;;15.43;13.33;;;16.30;99.90;;;;;;4978121;28;20406;-81
2021/07/24 03:25:32;;;;;;;15.73;14.00;;;16.20;99.90;;;;;;4978214;28;20482;-81
2021/07/24 03:28:00;;;;;;;17.30;14.90;;;16.20;99.90;;;;;;4979750;28;20604;-81
2021/07/24 03:30:29;;;;;;;15.67;13.07;;;16.20;99.90;;;;;;4979003;28;20434;-81
2021/07/24 03:32:57;;;;;;;11.80;10.57;;;16.20;99.90;;;;;;4980597;28;20425;-81
2021/07/24 03:35:25;;;;;;;14.50;12.20;;;16.20;99.90;;;;;;4979434;28;20429;-81
2021/07/24 03:37:53;;;;;;;14.90;11.57;;;16.10;99.90;;;;;;4982181;28;20738;-81
2021/07/24 03:40:22;;;;;;;16.23;13.20;;;16.10;99.90;;;;;;4985983;28;20421;-81
2021/07/24 03:42:50;;;;;;;12.97;11.37;;;16.10;99.90;;;;;;4985045;28;20431;-81
2021/07/24 03:45:18;;;;;;;16.33;12.43;;;16.20;99.90;;;;;;4978304;28;20475;-81
2021/07/24 03:47:48;;;;;;;23.77;13.70;;;16.40;99.90;;;;;;4980002;28;20417;-81
2021/07/24 03:50:16;;;;;;;16.13;11.70;;;16.50;99.90;;;;;;4977222;28;20425;-81
2021/07/24 03:52:44;;;;;;;17.10;13.07;;;16.70;99.90;;;;;;4976758;28;20542;-81
2021/07/24 03:55:12;;;;;;;14.47;11.93;;;16.80;99.90;;;;;;4979177;28;20453;-80
2021/07/24 03:57:40;;;;;;;17.77;12.17;;;17.00;99.90;;;;;;4977928;28;20409;-81
2021/07/24 04:00:11;;;;;;;15.10;11.37;;;17.20;99.90;;;;;;4977071;28;20443;-81
2021/07/24 04:02:45;;;;;;;13.33;11.43;;;17.30;99.90;;;;;;4976282;28;20497;-81
2021/07/24 04:05:15;;;;;;;13.80;12.40;;;17.60;99.90;;;;;;4936467;28;1149640;-81
2021/07/24 04:07:44;;;;;;;13.00;11.63;;;17.90;99.90;;;;;;4975147;28;20204;-81
2021/07/24 04:10:13;;;;;;;12.03;10.73;;;18.40;99.90;;;;;;4974553;28;20417;-81
2021/07/24 04:12:41;;;;;;;13.73;10.73;;;18.80;99.90;;;;;;4975887;28;20807;-81
2021/07/24 04:15:10;;;;;;;12.53;11.27;;;19.20;99.90;;;;;;4975758;28;20438;-81
2021/07/24 04:17:38;;;;;;;15.77;12.27;;;19.50;99.90;;;;;;4985803;28;20413;-81
2021/07/24 04:20:08;;;;;;;14.17;12.30;;;19.80;99.90;;;;;;4988791;28;20456;-81
2021/07/24 04:22:37;;;;;;;12.83;11.53;;;20.10;99.90;;;;;;4988038;28;20450;-80
2021/07/24 04:25:06;;;;;;;11.93;10.73;;;20.40;99.90;;;;;;4989720;28;20498;-79
2021/07/24 04:27:34;;;;;;;14.20;12.10;;;20.90;99.90;;;;;;4980256;28;20815;-80
2021/07/24 04:30:02;;;;;;;15.10;12.03;;;21.30;99.90;;;;;;4981467;28;20433;-80
2021/07/24 04:32:30;;;;;;;15.70;12.83;;;21.70;99.90;;;;;;4978381;28;20477;-81
2021/07/24 04:34:58;;;;;;;13.67;12.23;;;22.10;99.90;;;;;;4978394;28;20486;-81
2021/07/24 04:37:26;;;;;;;13.63;10.43;;;22.70;99.90;;;;;;4977939;28;20421;-81
2021/07/24 04:39:56;;;;;;;14.57;11.50;;;23.30;99.90;;;;;;4978593;28;20455;-82
2021/07/24 04:42:24;;;;;;;12.53;11.30;;;23.50;99.90;;;;;;4982322;28;20465;-80
2021/07/24 04:44:52;;;;;;;13.37;11.67;;;23.50;99.90;;;;;;4977070;28;20860;-81
2021/07/24 04:47:20;;;;;;;13.33;11.93;;;23.80;99.90;;;;;;4975606;28;20435;-81
2021/07/24 04:49:49;;;;;;;14.77;12.37;;;23.80;99.90;;;;;;4975618;28;20434;-81
2021/07/24 04:52:19;;;;;;;14.07;11.57;;;24.00;99.90;;;;;;4975074;28;20435;-80
2021/07/24 04:54:49;;;;;;;15.40;11.17;;;23.50;99.90;;;;;;4975713;28;20490;-80
2021/07/24 04:57:20;;;;;;;15.10;12.20;;;23.50;99.90;;;;;;4974201;28;20445;-81
2021/07/24 04:59:49;;;;;;;13.70;12.23;;;24.10;99.90;;;;;;4974305;28;20416;-81
2021/07/24 05:02:18;;;;;;;14.97;12.73;;;24.50;99.90;;;;;;4973748;28;20482;-80
2021/07/24 05:04:54;;;;;;;14.20;11.03;;;25.10;99.90;;;;;;4991311;22;20466;-70
2021/07/24 05:07:23;;;;;;;12.30;11.00;;;24.60;99.90;;;;;;4992600;28;20543;-74
2021/07/24 05:09:52;;;;;;;15.97;14.20;;;24.80;99.90;;;;;;4995160;28;20430;-74
2021/07/24 05:12:21;;;;;;;13.77;11.00;;;25.00;99.90;;;;;;5009800;28;20448;-74
2021/07/24 05:14:49;;;;;;;12.83;11.43;;;25.70;99.90;;;;;;4995011;28;20508;-74
2021/07/24 05:17:18;;;;;;;13.60;11.50;;;26.10;99.90;;;;;;4994891;28;20410;-74
2021/07/24 05:19:47;;;;;;;11.60;10.40;;;26.70;99.90;;;;;;4995499;28;20521;-74
2021/07/24 05:22:16;;;;;;;13.73;11.30;;;27.40;99.90;;;;;;4994597;28;20455;-73
2021/07/24 05:24:45;;;;;;;17.73;13.90;;;27.80;99.90;;;;;;4994985;28;20436;-74
2021/07/24 05:27:14;;;;;;;13.07;10.70;;;27.60;99.90;;;;;;4995551;28;20465;-73
2021/07/24 05:29:44;;;;;;;12.90;11.13;;;28.10;99.90;;;;;;4995514;28;20439;-74
2021/07/24 05:32:13;;;;;;;15.50;12.17;;;28.60;99.90;;;;;;4994051;28;20916;-76
2021/07/24 05:34:41;;;;;;;13.87;11.47;;;28.60;99.90;;;;;;4994658;28;20414;-74
2021/07/24 05:37:09;;;;;;;13.90;10.70;;;28.40;99.90;;;;;;4994414;28;20441;-74
2021/07/24 05:39:37;;;;;;;12.40;10.60;;;27.70;99.90;;;;;;5009716;28;20416;-74
2021/07/24 05:42:06;;;;;;;13.70;11.33;;;26.50;99.90;;;;;;4994796;28;20429;-73
2021/07/24 05:44:34;;;;;;;18.00;11.90;;;25.10;99.90;;;;;;5009198;28;20445;-74
2021/07/24 05:47:04;;;;;;;13.33;10.67;;;24.40;99.90;;;;;;4993814;28;20980;-74
2021/07/24 05:49:35;;;;;;;15.10;12.33;;;23.70;99.90;;;;;;4993133;28;20442;-74
2021/07/24 05:52:08;;;;;;;12.83;11.17;;;23.20;99.90;;;;;;4994365;28;20791;-74
2021/07/24 05:54:37;;;;;;;16.60;11.43;;;22.70;99.90;;;;;;5009054;28;20467;-74
2021/07/24 05:57:05;;;;;;;13.20;11.10;;;22.60;99.90;;;;;;4994093;28;20484;-73
2021/07/24 05:59:35;;;;;;;15.17;10.57;;;22.60;99.90;;;;;;5010550;28;20483;-74
2021/07/24 06:02:06;;;;;;;13.63;10.80;;;22.60;99.90;;;;;;4994934;28;20800;-76
2021/07/24 06:04:35;;;;;;;15.43;13.70;;;22.60;99.90;;;;;;5002939;28;20433;-74
2021/07/24 06:07:03;;;;;;;11.80;10.60;;;22.50;99.90;;;;;;5021006;28;20503;-75
2021/07/24 06:09:32;;;;;;;11.20;9.83;;;22.70;99.90;;;;;;5001675;28;20500;-75
2021/07/24 06:12:00;;;;;;;16.90;11.80;;;22.80;99.90;;;;;;5002424;28;20450;-74
2021/07/24 06:14:28;;;;;;;12.37;11.03;;;23.00;99.90;;;;;;5006359;28;20418;-74
2021/07/24 06:16:57;;;;;;;13.60;11.20;;;23.00;99.90;;;;;;5006354;28;20887;-74
2021/07/24 06:19:26;;;;;;;14.23;11.20;;;23.10;99.90;;;;;;5020586;28;20442;-73
2021/07/24 06:21:55;;;;;;;14.70;10.30;;;23.00;99.90;;;;;;5014049;28;20469;-73
2021/07/24 06:24:23;;;;;;;15.60;12.73;;;23.00;99.90;;;;;;5010555;28;20450;-74
2021/07/24 06:26:54;;;;;;;13.90;11.73;;;23.00;99.90;;;;;;4995431;28;20474;-75
2021/07/24 06:29:22;;;;;;;16.40;10.33;;;22.90;99.90;;;;;;4992947;28;20413;-75
2021/07/24 06:31:51;;;;;;;16.57;12.87;;;23.00;99.90;;;;;;4993974;28;20429;-74
2021/07/24 06:34:19;;;;;;;14.03;10.83;;;22.90;99.90;;;;;;4992547;28;20496;-74
2021/07/24 06:36:48;;;;;;;14.00;11.37;;;23.00;99.90;;;;;;4993506;28;20453;-74
2021/07/24 06:39:17;;;;;;;12.83;10.60;;;23.20;99.90;;;;;;4992423;28;20502;-77
2021/07/24 06:41:45;;;;;;;16.00;11.07;;;23.40;99.90;;;;;;4993925;28;20963;-74
2021/07/24 06:44:14;;;;;;;13.93;11.57;;;23.70;99.90;;;;;;4993501;28;20445;-74
2021/07/24 06:46:42;;;;;;;12.37;9.57;;;23.80;99.90;;;;;;4992268;28;20817;-74
2021/07/24 06:49:10;;;;;;;13.40;10.67;;;23.80;99.90;;;;;;4992366;28;20443;-74
2021/07/24 06:51:39;;;;;;;14.70;12.30;;;24.00;99.90;;;;;;4994214;28;20793;-74
2021/07/24 06:54:08;;;;;;;13.10;10.17;;;24.00;99.90;;;;;;5009344;28;20395;-74
2021/07/24 06:56:37;;;;;;;12.33;10.67;;;24.30;99.90;;;;;;4992882;28;20442;-74
2021/07/24 06:59:05;;;;;;;15.23;12.33;;;24.20;99.90;;;;;;4996778;28;20420;-75
2021/07/24 07:01:34;;;;;;;14.07;11.77;;;24.30;99.90;;;;;;4992987;28;20469;-74
2021/07/24 07:04:04;;;;;;;21.33;10.37;;;24.50;99.90;;;;;;4991570;28;20553;-76
2021/07/24 07:06:32;;;;;;;15.80;11.10;;;24.50;99.90;;;;;;4992136;28;20481;-74
2021/07/24 07:09:01;;;;;;;13.17;9.20;;;24.60;99.90;;;;;;4993612;28;20791;-75
2021/07/24 07:11:30;;;;;;;13.37;10.60;;;24.70;99.90;;;;;;4992996;28;20454;-74
2021/07/24 07:13:59;;;;;;;13.97;11.63;;;24.70;99.90;;;;;;4992798;28;20495;-75
2021/07/24 07:16:27;;;;;;;13.37;11.90;;;24.70;99.90;;;;;;4992352;28;20441;-75
2021/07/24 07:18:55;;;;;;;12.43;10.07;;;24.60;99.90;;;;;;4992745;28;20436;-73
2021/07/24 07:21:23;;;;;;;12.57;11.10;;;24.60;99.90;;;;;;4992955;28;20790;-74
2021/07/24 07:23:52;;;;;;;11.17;9.83;;;24.70;99.90;;;;;;4991488;28;20835;-74
2021/07/24 07:26:24;;;;;;;13.03;11.60;;;24.90;99.90;;;;;;4991096;28;20473;-76
2021/07/24 07:28:55;;;;;;;14.50;11.23;;;25.00;99.90;;;;;;4993387;28;20497;-75
2021/07/24 07:31:24;;;;;;;17.37;12.20;;;25.10;99.90;;;;;;4992856;28;20878;-76
2021/07/24 07:33:52;;;;;;;15.03;12.37;;;25.30;99.90;;;;;;4993015;28;20780;-77
2021/07/24 07:36:20;;;;;;;15.00;12.53;;;25.40;99.90;;;;;;4993250;28;20480;-74
2021/07/24 07:38:49;;;;;;;13.53;11.47;;;25.40;99.90;;;;;;4992612;28;20421;-74
2021/07/24 07:41:18;;;;;;;12.60;9.47;;;25.30;99.90;;;;;;4992248;28;20520;-74
2021/07/24 07:43:46;;;;;;;12.47;10.47;;;25.10;99.90;;;;;;4990402;28;20417;-74
2021/07/24 07:46:17;;;;;;;20.23;11.20;;;25.10;99.90;;;;;;5007232;28;20461;-76
2021/07/24 07:48:45;;;;;;;14.43;11.27;;;25.30;99.90;;;;;;5008525;28;20476;-72
2021/07/24 07:51:14;;;;;;;12.00;10.67;;;25.40;99.90;;;;;;4993012;28;20496;-75
2021/07/24 07:53:42;;;;;;;13.77;10.80;;;25.50;99.90;;;;;;5007285;28;20498;-74
2021/07/24 07:56:11;;;;;;;12.93;11.13;;;25.70;99.90;;;;;;5007117;28;20810;-74
2021/07/24 07:58:39;;;;;;;13.50;11.40;;;25.80;99.90;;;;;;4992050;28;20440;-75
2021/07/24 08:01:13;;;;;;;11.80;10.60;;;25.80;99.90;;;;;;4992850;28;20516;-75
2021/07/24 08:03:43;;;;;;;14.07;12.23;;;25.70;99.90;;;;;;4990991;28;20529;-73
2021/07/24 08:06:12;;;;;;;12.50;11.20;;;25.80;99.90;;;;;;4991684;28;20512;-74
2021/07/24 08:08:40;;;;;;;12.23;11.03;;;25.90;99.90;;;;;;4991533;28;20470;-75
2021/07/24 08:11:09;;;;;;;16.50;11.57;;;26.10;99.90;;;;;;4992578;28;20991;-74
2021/07/24 08:13:37;;;;;;;13.97;12.10;;;26.10;99.90;;;;;;4992330;28;20433;-74
2021/07/24 08:16:13;;;;;;;11.53;10.33;;;26.30;99.90;;;;;;4992247;28;20505;-76
2021/07/24 08:18:43;;;;;;;13.37;10.77;;;26.50;99.90;;;;;;5006636;28;20426;-74
2021/07/24 08:21:12;;;;;;;14.80;12.60;;;26.50;99.90;;;;;;4990459;28;20516;-74
2021/07/24 08:23:40;;;;;;;12.57;11.07;;;26.60;99.90;;;;;;4990403;28;20442;-74
2021/07/24 08:26:09;;;;;;;15.17;12.20;;;26.60;99.90;;;;;;4991803;28;20441;-74
2021/07/24 08:28:37;;;;;;;14.87;13.03;;;26.30;99.90;;;;;;4990107;28;20842;-74
2021/07/24 08:31:05;;;;;;;15.67;12.43;;;26.10;99.90;;;;;;4991481;28;20473;-74
2021/07/24 08:33:35;;;;;;;13.10;11.67;;;26.20;99.90;;;;;;4991768;28;20832;-74
2021/07/24 08:36:05;;;;;;;12.80;10.87;;;26.40;99.90;;;;;;4991678;28;20758;-74
2021/07/24 08:38:33;;;;;;;13.93;12.53;;;26.40;99.90;;;;;;4992126;28;20430;-74
2021/07/24 08:41:02;;;;;;;13.77;12.30;;;26.60;99.90;;;;;;4995611;28;20412;-74
2021/07/24 08:43:31;;;;;;;13.40;12.00;;;26.60;99.90;;;;;;4995422;28;20528;-74
2021/07/24 08:45:59;;;;;;;14.40;11.50;;;26.50;99.90;;;;;;4994124;28;20544;-74
2021/07/24 08:48:28;;;;;;;15.40;11.40;;;26.50;99.90;;;;;;4994196;28;20877;-74
2021/07/24 08:50:59;;;;;;;16.00;12.37;;;26.50;99.90;;;;;;4995637;28;20500;-74
2021/07/24 08:53:33;;;;;;;12.70;10.80;;;26.40;99.90;;;;;;5011272;28;20492;-74
2021/07/24 08:56:05;;;;;;;14.97;12.73;;;26.40;99.90;;;;;;5000441;28;20404;-74
2021/07/24 08:58:35;;;;;;;16.03;11.80;;;26.50;99.90;;;;;;4997942;28;20532;-74
2021/07/24 09:01:04;;;;;;;12.97;11.47;;;26.60;99.90;;;;;;5002378;28;20445;-75
2021/07/24 09:03:34;;;;;;;12.73;11.23;;;26.70;99.90;;;;;;4997186;28;20940;-75
2021/07/24 09:06:03;;;;;;;14.13;11.90;;;26.80;99.90;;;;;;5013179;28;20873;-75
2021/07/24 09:08:34;;;;;;;15.20;11.30;;;27.00;99.90;;;;;;4993765;28;20529;-74
2021/07/24 09:11:02;;;;;;;12.63;9.57;;;27.00;99.90;;;;;;4993597;28;20454;-74
2021/07/24 09:13:31;;;;;;;11.37;9.93;;;26.80;99.90;;;;;;4993596;28;20891;-74
2021/07/24 09:16:00;;;;;;;13.80;10.83;;;26.90;99.90;;;;;;4993382;28;20470;-74
2021/07/24 09:18:29;;;;;;;13.47;12.10;;;26.80;99.90;;;;;;4993736;28;20437;-74
2021/07/24 09:20:58;;;;;;;12.60;11.07;;;26.80;99.90;;;;;;4993589;28;20448;-74
2021/07/24 09:23:27;;;;;;;12.50;10.40;;;26.90;99.90;;;;;;4994661;28;20440;-74
2021/07/24 09:25:57;;;;;;;12.13;10.90;;;27.00;99.90;;;;;;4993150;28;20415;-75
2021/07/24 09:28:26;;;;;;;12.50;10.20;;;27.20;99.90;;;;;;5009783;28;20563;-74
2021/07/24 09:30:54;;;;;;;12.00;10.80;;;27.40;99.90;;;;;;4994469;28;20464;-74
2021/07/24 09:33:22;;;;;;;13.10;11.43;;;27.40;99.90;;;;;;4993380;28;20534;-74
2021/07/24 09:36:01;;;;;;;12.90;10.40;;;27.40;99.90;;;;;;5009265;28;20966;-73
2021/07/24 09:38:32;;;;;;;11.80;10.60;;;27.60;99.90;;;;;;4993252;28;20542;-73
2021/07/24 09:41:04;;;;;;;11.80;10.27;;;27.50;99.90;;;;;;4993133;28;20457;-76
2021/07/24 09:43:38;;;;;;;12.90;10.53;;;27.40;99.90;;;;;;4993919;28;20852;-73
2021/07/24 09:46:12;;;;;;;12.53;10.13;;;27.50;99.90;;;;;;4994772;28;20510;-75
2021/07/24 09:48:41;;;;;;;13.20;10.00;;;27.30;99.90;;;;;;5010737;28;20489;-74
2021/07/24 09:51:09;;;;;;;12.50;10.67;;;27.20;99.90;;;;;;4991578;28;20454;-73
2021/07/24 09:53:39;;;;;;;12.67;10.93;;;27.20;99.90;;;;;;4994721;28;20397;-74
2021/07/24 09:56:14;;;;;;;13.07;10.93;;;27.40;99.90;;;;;;4994006;28;21032;-74
2021/07/24 09:58:43;;;;;;;10.53;9.47;;;27.40;99.90;;;;;;4994422;28;20406;-74
2021/07/24 10:01:15;;;;;;;13.33;11.00;;;27.50;99.90;;;;;;4993789;28;20983;-73
2021/07/24 10:03:48;;;;;;;15.93;12.00;;;27.80;99.90;;;;;;4994670;28;20429;-76
2021/07/24 10:06:17;;;;;;;12.07;10.60;;;27.70;99.90;;;;;;4992642;28;20474;-73
2021/07/24 10:08:48;;;;;;;18.10;10.20;;;27.80;99.90;;;;;;4993657;28;20485;-72
2021/07/24 10:11:18;;;;;;;13.50;11.97;;;27.60;99.90;;;;;;4994689;28;20844;-75
2021/07/24 10:13:46;;;;;;;15.00;10.70;;;27.40;99.90;;;;;;4994457;28;20916;-75
2021/07/24 10:16:15;;;;;;;13.27;10.23;;;27.50;99.90;;;;;;4993668;28;20417;-75
2021/07/24 10:18:44;;;;;;;11.10;9.40;;;27.70;99.90;;;;;;4994695;28;20725;-73
2021/07/24 10:21:12;;;;;;;12.20;10.93;;;28.10;99.90;;;;;;5009059;28;20476;-73
2021/07/24 10:23:41;;;;;;;12.27;10.43;;;28.30;99.90;;;;;;4992638;28;20449;-72
2021/07/24 10:26:13;;;;;;;12.47;10.77;;;28.50;99.90;;;;;;4994469;28;20448;-75
2021/07/24 10:28:54;;;;;;;11.60;10.40;;;28.40;99.90;;;;;;5012512;28;20436;-75
2021/07/24 10:31:26;;;;;;;12.63;11.33;;;28.20;99.90;;;;;;4998494;28;20454;-76
2021/07/24 10:33:57;;;;;;;12.77;10.30;;;28.30;99.90;;;;;;5001749;28;20438;-75
2021/07/24 10:36:35;;;;;;;12.17;9.80;;;28.50;99.90;;;;;;5004085;28;20430;-76
2021/07/24 10:39:06;;;;;;;13.20;11.80;;;28.50;99.90;;;;;;5005597;28;20468;-75
2021/07/24 10:41:39;;;;;;;15.23;12.83;;;28.40;99.90;;;;;;5019819;28;20473;-74
2021/07/24 10:44:10;;;;;;;12.20;10.13;;;28.50;99.90;;;;;;5005578;28;20478;-74
2021/07/24 10:47:15;;;;;;;14.00;11.60;;;28.60;99.90;;;;;;5009229;28;20850;-74
2021/07/24 10:50:02;;;;;;;12.37;11.07;;;28.60;99.90;;;;;;5010503;28;20546;-75
2021/07/24 10:53:11;;;;;;;10.80;9.43;;;28.80;99.90;;;;;;5006195;28;20458;-75
2021/07/24 10:55:48;;;;;;;12.10;9.53;;;28.80;99.90;;;;;;5001295;28;20528;-75
2021/07/24 10:58:18;;;;;;;12.13;10.60;;;28.80;99.90;;;;;;4994557;28;20436;-75
2021/07/24 11:00:57;;;;;;;13.37;11.30;;;28.90;99.90;;;;;;4993081;28;20456;-74
2021/07/24 11:03:29;;;;;;;10.87;9.70;;;29.00;99.90;;;;;;4992758;28;20454;-75
2021/07/24 11:05:58;;;;;;;11.47;10.40;;;29.10;99.90;;;;;;5008801;23;20489;-81
2021/07/24 11:09:04;;;;;;;11.87;10.67;;;29.10;99.90;;;;;;4992032;28;20438;-80
2021/07/24 11:11:37;;;;;;;14.63;10.80;;;29.30;99.90;;;;;;4980446;28;20422;-82
2021/07/24 11:14:06;;;;;;;12.43;9.70;;;29.30;99.90;;;;;;4980596;28;20874;-81
2021/07/24 11:17:14;;;;;;;13.70;10.03;;;29.70;99.90;;;;;;4958825;28;20459;-82
2021/07/24 11:19:44;;;;;;;12.20;10.30;;;29.80;99.90;;;;;;4959267;29;20467;-80
2021/07/24 11:22:14;;;;;;;12.30;11.00;;;29.70;99.90;;;;;;4943627;29;20506;-80
2021/07/24 11:24:44;;;;;;;11.73;9.80;;;29.80;99.90;;;;;;4942825;29;20435;-79
2021/07/24 11:27:12;;;;;;;11.00;9.60;;;29.70;99.90;;;;;;4960099;28;20447;-80
2021/07/24 11:29:40;;;;;;;11.57;9.67;;;29.30;99.90;;;;;;4962148;28;20476;-80
2021/07/24 11:32:09;;;;;;;11.33;10.10;;;29.20;99.90;;;;;;4966912;29;20438;-81
2021/07/24 11:34:38;;;;;;;11.93;9.93;;;29.00;99.90;;;;;;4970268;28;20432;-81
2021/07/24 11:37:08;;;;;;;11.73;10.17;;;28.80;99.90;;;;;;4973056;28;20458;-80
2021/07/24 11:39:36;;;;;;;12.97;11.57;;;28.60;99.90;;;;;;4969481;29;20410;-83
2021/07/24 11:42:20;;;;;;;13.17;10.33;;;28.50;99.90;;;;;;4969856;29;20451;-81
2021/07/24 11:44:50;;;;;;;12.70;9.70;;;28.60;99.90;;;;;;4953504;29;20447;-81
2021/07/24 11:47:18;;;;;;;11.53;10.37;;;28.80;99.90;;;;;;4969603;29;20420;-81
2021/07/24 11:49:50;;;;;;;11.30;10.20;;;29.20;99.90;;;;;;4967120;29;20530;-80
2021/07/24 11:52:24;;;;;;;11.67;10.47;;;29.30;99.90;;;;;;4966677;29;20926;-81
2021/07/24 11:54:52;;;;;;;13.83;9.67;;;29.30;99.90;;;;;;4962599;28;20436;-79
2021/07/24 11:57:28;;;;;;;11.83;9.90;;;29.10;99.90;;;;;;4963410;29;20459;-82
2021/07/24 11:59:56;;;;;;;10.63;9.53;;;29.20;99.90;;;;;;4961549;29;20431;-81
2021/07/24 12:02:24;;;;;;;11.50;9.57;;;29.00;99.90;;;;;;4960224;29;20471;-81
2021/07/24 12:04:52;;;;;;;12.60;10.63;;;29.20;99.90;;;;;;4959126;28;20451;-81
2021/07/24 12:07:23;;;;;;;11.17;10.17;;;29.60;99.90;;;;;;4965957;29;20435;-81
2021/07/24 12:09:54;;;;;;;11.47;10.07;;;29.90;99.90;;;;;;4951337;29;20478;-81
2021/07/24 12:12:24;;;;;;;10.63;9.53;;;30.00;99.90;;;;;;4968498;28;20420;-82
2021/07/24 12:14:56;;;;;;;11.87;10.73;;;30.30;99.90;;;;;;4962967;28;20450;-80
2021/07/24 12:17:25;;;;;;;12.30;10.60;;;30.40;99.90;;;;;;4942610;29;20466;-80
2021/07/24 12:19:53;;;;;;;10.90;9.80;;;30.40;99.90;;;;;;4943823;29;20428;-81
2021/07/24 12:22:24;;;;;;;13.17;10.43;;;30.20;99.90;;;;;;4959749;29;20439;-80
2021/07/24 12:25:12;;;;;;;12.37;10.73;;;30.00;99.90;;;;;;4942433;28;20460;-81
2021/07/24 12:27:48;;;;;;;13.30;8.60;;;29.90;99.90;;;;;;4959701;29;20427;-80
2021/07/24 12:30:27;;;;;;;12.67;9.90;;;30.20;99.90;;;;;;4958009;29;20823;-81
2021/07/24 12:32:55;;;;;;;11.50;10.30;;;30.50;99.90;;;;;;4959798;29;20431;-81
2021/07/24 12:35:25;;;;;;;10.33;8.90;;;30.60;99.90;;;;;;4959043;28;20483;-81
2021/07/24 12:38:02;;;;;;;13.13;10.20;;;30.70;99.90;;;;;;4959327;29;20858;-81
2021/07/24 12:40:32;;;;;;;11.50;10.30;;;30.70;99.90;;;;;;4957320;28;20479;-81
2021/07/24 12:43:10;;;;;;;12.70;9.50;;;30.60;99.90;;;;;;4958985;29;20432;-81
2021/07/24 12:45:38;;;;;;;12.13;10.23;;;30.50;99.90;;;;;;4958269;28;20547;-81
2021/07/24 12:48:19;;;;;;;11.97;9.50;;;30.60;99.90;;;;;;4942537;29;20914;-81